»·PEaware :: WAT538 KLAX-KLAS

WAT538 :: KLAX-KLAS

FLIGHT INFORMATION

Flight Status: Arrived
Operator:
Walker Air Transport
More flights by this operator :: More flights under this callsign
Pilot: Tysen P. (33868)
Aircraft: Cessna 525C Citation CJ4
(C25C)
More flights by this aircraft type
Origin: KLAX Los Angeles Intl
United States
Destination: KLAS McCarran Intl
United States
More flights between these airports :: More routes between these airports
Route: ORCKA5 MISEN KEPEC6
File this flight plan on PilotEdge
Remarks: RMK / SIMBRIEF
Altitude:
(Current/Filed)
25,000ft
Speed:
(Current/Filed)
430kts
Departed: 22-Feb-21 05:21 PM
Arrived: 22-Feb-21 06:13 PM
Distance/Time
Traveled:
205nm/0:52
Distance/Time
To Go:
Arrived

Flight Plot

Page will automatically refresh every two minutes.

Flight plan parsing failed; only flown route is shown


Map Options




Map Legend


Flown Route
Filed Route
Departure Airport
Arrival Airport
Navaid (VOR, NDB)
Fix

Horizontal Profiles

Position Reports

Time Latitude Longitude Heading Altitude Ground
Speed
22-Feb-21 17:00 33.933919 -118.395702 225 119ft 0kts
22-Feb-21 17:01 33.933919 -118.395702 225 119ft 0kts
22-Feb-21 17:02 33.933919 -118.395702 225 119ft 0kts
22-Feb-21 17:03 33.933919 -118.395702 225 119ft 0kts
22-Feb-21 17:04 33.933919 -118.395702 225 119ft 0kts
22-Feb-21 17:05 33.933919 -118.395702 225 119ft 0kts
22-Feb-21 17:06 33.933919 -118.395702 225 119ft 0kts
22-Feb-21 17:07 33.933919 -118.395702 225 119ft 0kts
22-Feb-21 17:08 33.933919 -118.395702 225 119ft 0kts
22-Feb-21 17:09 33.933919 -118.395702 225 119ft 0kts
22-Feb-21 17:10 33.933919 -118.395702 225 119ft 0kts
22-Feb-21 17:11 33.933919 -118.395702 225 119ft 0kts
22-Feb-21 17:12 33.933919 -118.395702 225 119ft 0kts
22-Feb-21 17:13 33.933919 -118.395702 225 119ft 0kts
22-Feb-21 17:14 33.933919 -118.395702 225 119ft 0kts
22-Feb-21 17:15 33.933919 -118.395702 225 119ft 0kts
22-Feb-21 17:16 33.935099 -118.392903 81 119ft 24kts
22-Feb-21 17:17 33.935914 -118.384915 84 119ft 10kts
22-Feb-21 17:18 33.936401 -118.382811 20 119ft 0kts
22-Feb-21 17:19 33.936442 -118.382794 18 119ft 3kts
22-Feb-21 17:20 33.936115 -118.395884 264 369ft 146kts
22-Feb-21 17:21 33.929300 -118.457625 263 2395ft 187kts
22-Feb-21 17:22 33.910356 -118.520267 247 4504ft 231kts
22-Feb-21 17:23 33.882691 -118.600403 247 5005ft 276kts
22-Feb-21 17:24 33.836752 -118.672070 207 7069ft 270kts
22-Feb-21 17:25 33.783775 -118.635086 83 10197ft 303kts
22-Feb-21 17:26 33.832034 -118.554909 43 13929ft 308kts
22-Feb-21 17:27 33.899917 -118.475027 45 14968ft 363kts
22-Feb-21 17:28 33.963433 -118.381689 57 15181ft 362kts
22-Feb-21 17:29 34.014408 -118.288819 54 16701ft 370kts
22-Feb-21 17:30 34.072305 -118.187188 55 17493ft 362kts
22-Feb-21 17:31 34.128027 -118.088193 55 21584ft 367kts
22-Feb-21 17:32 34.186143 -117.984577 55 24753ft 373kts
22-Feb-21 17:33 34.242609 -117.883755 55 25144ft 357kts
22-Feb-21 17:34 34.297644 -117.785559 55 25144ft 353kts
22-Feb-21 17:35 34.352831 -117.687370 55 25142ft 352kts
22-Feb-21 17:36 34.411883 -117.589022 54 25367ft 386kts
22-Feb-21 17:37 34.475806 -117.481075 54 25390ft 396kts
22-Feb-21 17:38 34.540209 -117.372700 54 25394ft 397kts
22-Feb-21 17:39 34.604859 -117.263573 54 25397ft 398kts
22-Feb-21 17:40 34.669345 -117.154388 54 25406ft 399kts
22-Feb-21 17:41 34.733889 -117.044719 54 25414ft 399kts
22-Feb-21 17:42 34.798755 -116.934213 54 25286ft 402kts
22-Feb-21 17:43 34.863572 -116.823444 54 25274ft 403kts
22-Feb-21 17:44 34.928494 -116.712385 54 25266ft 402kts
22-Feb-21 17:45 34.991886 -116.599885 55 25263ft 402kts
22-Feb-21 17:46 35.051659 -116.493398 54 24322ft 376kts
22-Feb-21 17:47 35.112711 -116.388011 47 24253ft 349kts
22-Feb-21 17:48 35.178313 -116.308986 43 21479ft 336kts
22-Feb-21 17:49 35.242075 -116.229160 44 17937ft 319kts
22-Feb-21 17:50 35.302408 -116.152946 43 15184ft 305kts
22-Feb-21 17:51 35.361091 -116.078912 43 14120ft 300kts
22-Feb-21 17:52 35.418584 -116.006237 43 13176ft 292kts
22-Feb-21 17:53 35.474819 -115.935033 43 13176ft 296kts
22-Feb-21 17:54 35.533002 -115.861254 43 13181ft 302kts
22-Feb-21 17:55 35.591143 -115.787328 43 13187ft 301kts
22-Feb-21 17:56 35.647131 -115.715963 43 13176ft 299kts
22-Feb-21 17:57 35.704912 -115.642357 44 13173ft 298kts
22-Feb-21 17:58 35.764465 -115.573815 15 13184ft 292kts
22-Feb-21 17:59 35.843900 -115.570417 358 13193ft 289kts
22-Feb-21 18:00 35.924282 -115.566122 1 13183ft 289kts
22-Feb-21 18:01 35.987021 -115.524558 68 12567ft 277kts
22-Feb-21 18:02 36.010973 -115.437354 65 11214ft 251kts
22-Feb-21 18:03 36.031509 -115.363942 97 10996ft 213kts
22-Feb-21 18:04 36.024709 -115.282577 93 9568ft 262kts
22-Feb-21 18:05 36.018106 -115.197711 91 9079ft 223kts
22-Feb-21 18:06 36.028422 -115.138494 34 8637ft 154kts
22-Feb-21 18:07 36.066989 -115.111297 23 7417ft 164kts
22-Feb-21 18:08 36.108095 -115.087453 20 6208ft 133kts
22-Feb-21 18:09 36.132673 -115.107241 291 4761ft 125kts
22-Feb-21 18:10 36.121321 -115.143254 216 3289ft 139kts
22-Feb-21 18:11 36.090868 -115.161522 201 2182ft 79kts
22-Feb-21 18:12 36.089344 -115.163564 266 2182ft 0kts
22-Feb-21 18:13 36.089344 -115.163564 266 2182ft 0kts
22-Feb-21 18:14 36.089344 -115.163564 266 2182ft 0kts
22-Feb-21 18:15 36.088601 -115.165210 205 2181ft 12kts
22-Feb-21 18:16 36.087310 -115.165937 204 2181ft 22kts

Navigation Log

Ident Type
Flight plan parsing failed, navigation log unavailable